sensor_id;sensor_type;location;lat;lon;timestamp;P1;durP1;ratioP1;P2;durP2;ratioP2
18796;SDS011;9526;52.612;13.300;2023-07-31T00:01:57;2.60;;;1.67;;
18796;SDS011;9526;52.612;13.300;2023-07-31T00:04:21;2.60;;;1.35;;
18796;SDS011;9526;52.612;13.300;2023-07-31T00:06:44;2.67;;;1.60;;
18796;SDS011;9526;52.612;13.300;2023-07-31T00:09:09;3.90;;;1.50;;
18796;SDS011;9526;52.612;13.300;2023-07-31T00:11:33;2.35;;;1.58;;
18796;SDS011;9526;52.612;13.300;2023-07-31T00:13:57;3.08;;;1.60;;
18796;SDS011;9526;52.612;13.300;2023-07-31T00:16:21;6.63;;;1.73;;
18796;SDS011;9526;52.612;13.300;2023-07-31T00:18:45;2.22;;;1.40;;
18796;SDS011;9526;52.612;13.300;2023-07-31T00:21:08;2.28;;;1.58;;
18796;SDS011;9526;52.612;13.300;2023-07-31T00:23:32;3.65;;;1.35;;
18796;SDS011;9526;52.612;13.300;2023-07-31T00:25:57;3.25;;;1.95;;
18796;SDS011;9526;52.612;13.300;2023-07-31T00:28:21;2.15;;;1.38;;
18796;SDS011;9526;52.612;13.300;2023-07-31T00:30:44;4.22;;;1.30;;
18796;SDS011;9526;52.612;13.300;2023-07-31T00:33:08;6.22;;;1.27;;
18796;SDS011;9526;52.612;13.300;2023-07-31T00:35:32;2.55;;;1.40;;
18796;SDS011;9526;52.612;13.300;2023-07-31T00:37:56;4.13;;;1.30;;
18796;SDS011;9526;52.612;13.300;2023-07-31T00:40:21;6.28;;;1.63;;
18796;SDS011;9526;52.612;13.300;2023-07-31T00:42:46;1.80;;;1.33;;
18796;SDS011;9526;52.612;13.300;2023-07-31T00:45:09;2.13;;;1.40;;
18796;SDS011;9526;52.612;13.300;2023-07-31T00:47:33;3.15;;;1.30;;
18796;SDS011;9526;52.612;13.300;2023-07-31T00:49:57;2.28;;;1.55;;
18796;SDS011;9526;52.612;13.300;2023-07-31T00:52:21;3.47;;;1.60;;
18796;SDS011;9526;52.612;13.300;2023-07-31T00:54:44;2.05;;;1.63;;
18796;SDS011;9526;52.612;13.300;2023-07-31T00:57:08;3.22;;;1.65;;
18796;SDS011;9526;52.612;13.300;2023-07-31T00:59:33;3.17;;;1.33;;
18796;SDS011;9526;52.612;13.300;2023-07-31T01:01:57;1.88;;;1.35;;
18796;SDS011;9526;52.612;13.300;2023-07-31T01:04:21;2.05;;;1.60;;
18796;SDS011;9526;52.612;13.300;2023-07-31T01:06:47;3.45;;;1.52;;
18796;SDS011;9526;52.612;13.300;2023-07-31T01:09:20;2.72;;;1.63;;
18796;SDS011;9526;52.612;13.300;2023-07-31T01:12:03;4.90;;;1.98;;
18796;SDS011;9526;52.612;13.300;2023-07-31T01:14:29;2.55;;;1.73;;
18796;SDS011;9526;52.612;13.300;2023-07-31T01:16:54;2.08;;;1.65;;
18796;SDS011;9526;52.612;13.300;2023-07-31T01:19:20;3.85;;;1.73;;
18796;SDS011;9526;52.612;13.300;2023-07-31T01:24:49;3.20;;;1.58;;
18796;SDS011;9526;52.612;13.300;2023-07-31T01:27:27;6.40;;;1.83;;
18796;SDS011;9526;52.612;13.300;2023-07-31T01:29:56;4.30;;;1.70;;
18796;SDS011;9526;52.612;13.300;2023-07-31T01:32:25;3.88;;;1.92;;
18796;SDS011;9526;52.612;13.300;2023-07-31T01:34:51;2.85;;;1.75;;
18796;SDS011;9526;52.612;13.300;2023-07-31T01:37:16;4.03;;;1.95;;
18796;SDS011;9526;52.612;13.300;2023-07-31T01:39:40;2.10;;;1.75;;
18796;SDS011;9526;52.612;13.300;2023-07-31T01:42:04;3.30;;;1.63;;
18796;SDS011;9526;52.612;13.300;2023-07-31T01:44:30;3.03;;;1.70;;
18796;SDS011;9526;52.612;13.300;2023-07-31T01:46:54;3.65;;;1.85;;
18796;SDS011;9526;52.612;13.300;2023-07-31T01:49:18;3.05;;;1.65;;
18796;SDS011;9526;52.612;13.300;2023-07-31T01:51:41;5.22;;;1.80;;
18796;SDS011;9526;52.612;13.300;2023-07-31T01:54:05;2.75;;;1.88;;
18796;SDS011;9526;52.612;13.300;2023-07-31T01:56:29;4.22;;;1.95;;
18796;SDS011;9526;52.612;13.300;2023-07-31T01:58:53;2.58;;;1.90;;
18796;SDS011;9526;52.612;13.300;2023-07-31T02:01:18;2.92;;;1.50;;
18796;SDS011;9526;52.612;13.300;2023-07-31T02:03:42;3.05;;;1.75;;
18796;SDS011;9526;52.612;13.300;2023-07-31T02:06:06;2.35;;;1.70;;
18796;SDS011;9526;52.612;13.300;2023-07-31T02:08:29;3.92;;;1.80;;
18796;SDS011;9526;52.612;13.300;2023-07-31T02:10:53;3.83;;;2.08;;
18796;SDS011;9526;52.612;13.300;2023-07-31T02:13:17;3.28;;;2.05;;
18796;SDS011;9526;52.612;13.300;2023-07-31T02:15:40;2.28;;;1.50;;
18796;SDS011;9526;52.612;13.300;2023-07-31T02:18:06;3.67;;;1.80;;
18796;SDS011;9526;52.612;13.300;2023-07-31T02:20:30;3.35;;;2.00;;
18796;SDS011;9526;52.612;13.300;2023-07-31T02:22:57;3.55;;;2.00;;
18796;SDS011;9526;52.612;13.300;2023-07-31T02:25:21;2.67;;;1.80;;
18796;SDS011;9526;52.612;13.300;2023-07-31T02:27:45;2.88;;;1.67;;
18796;SDS011;9526;52.612;13.300;2023-07-31T02:30:10;3.58;;;1.95;;
18796;SDS011;9526;52.612;13.300;2023-07-31T02:32:34;3.20;;;1.80;;
18796;SDS011;9526;52.612;13.300;2023-07-31T02:34:59;4.90;;;1.73;;
18796;SDS011;9526;52.612;13.300;2023-07-31T02:37:23;3.55;;;2.15;;
18796;SDS011;9526;52.612;13.300;2023-07-31T02:39:46;3.80;;;2.25;;
18796;SDS011;9526;52.612;13.300;2023-07-31T02:42:10;3.80;;;2.03;;
18796;SDS011;9526;52.612;13.300;2023-07-31T02:44:33;6.35;;;1.90;;
18796;SDS011;9526;52.612;13.300;2023-07-31T02:46:57;3.30;;;1.60;;
18796;SDS011;9526;52.612;13.300;2023-07-31T02:49:20;2.53;;;1.75;;
18796;SDS011;9526;52.612;13.300;2023-07-31T02:51:46;3.13;;;1.85;;
18796;SDS011;9526;52.612;13.300;2023-07-31T02:54:09;2.47;;;1.80;;
18796;SDS011;9526;52.612;13.300;2023-07-31T02:56:33;2.40;;;1.75;;
18796;SDS011;9526;52.612;13.300;2023-07-31T02:58:57;3.50;;;2.20;;
18796;SDS011;9526;52.612;13.300;2023-07-31T03:01:20;2.65;;;1.80;;
18796;SDS011;9526;52.612;13.300;2023-07-31T03:03:44;3.80;;;2.20;;
18796;SDS011;9526;52.612;13.300;2023-07-31T03:06:08;3.40;;;1.98;;
18796;SDS011;9526;52.612;13.300;2023-07-31T03:08:33;2.30;;;1.83;;
18796;SDS011;9526;52.612;13.300;2023-07-31T03:10:57;4.82;;;2.20;;
18796;SDS011;9526;52.612;13.300;2023-07-31T03:13:21;2.25;;;1.90;;
18796;SDS011;9526;52.612;13.300;2023-07-31T03:15:45;2.85;;;2.22;;
18796;SDS011;9526;52.612;13.300;2023-07-31T03:18:09;2.65;;;1.80;;
18796;SDS011;9526;52.612;13.300;2023-07-31T03:20:33;2.80;;;2.00;;
18796;SDS011;9526;52.612;13.300;2023-07-31T03:22:56;5.00;;;2.55;;
18796;SDS011;9526;52.612;13.300;2023-07-31T03:25:22;2.58;;;1.80;;
18796;SDS011;9526;52.612;13.300;2023-07-31T03:27:45;2.17;;;1.85;;
18796;SDS011;9526;52.612;13.300;2023-07-31T03:30:09;5.90;;;2.28;;
18796;SDS011;9526;52.612;13.300;2023-07-31T03:32:33;3.83;;;2.17;;
18796;SDS011;9526;52.612;13.300;2023-07-31T03:34:58;3.67;;;2.15;;
18796;SDS011;9526;52.612;13.300;2023-07-31T03:37:22;3.03;;;2.15;;
18796;SDS011;9526;52.612;13.300;2023-07-31T03:39:45;2.58;;;2.38;;
18796;SDS011;9526;52.612;13.300;2023-07-31T03:42:10;4.07;;;2.28;;
18796;SDS011;9526;52.612;13.300;2023-07-31T03:44:34;3.63;;;2.42;;
18796;SDS011;9526;52.612;13.300;2023-07-31T03:46:59;2.03;;;1.85;;
18796;SDS011;9526;52.612;13.300;2023-07-31T03:49:23;4.18;;;2.30;;
18796;SDS011;9526;52.612;13.300;2023-07-31T03:51:46;3.03;;;2.30;;
18796;SDS011;9526;52.612;13.300;2023-07-31T03:54:10;3.97;;;2.45;;
18796;SDS011;9526;52.612;13.300;2023-07-31T03:56:34;3.67;;;2.28;;
18796;SDS011;9526;52.612;13.300;2023-07-31T03:59:01;4.05;;;2.42;;
18796;SDS011;9526;52.612;13.300;2023-07-31T04:01:25;3.25;;;2.30;;
18796;SDS011;9526;52.612;13.300;2023-07-31T04:03:49;3.25;;;2.47;;
18796;SDS011;9526;52.612;13.300;2023-07-31T04:06:13;5.85;;;3.22;;
18796;SDS011;9526;52.612;13.300;2023-07-31T04:08:39;5.15;;;3.67;;
18796;SDS011;9526;52.612;13.300;2023-07-31T04:11:03;6.65;;;3.08;;
18796;SDS011;9526;52.612;13.300;2023-07-31T04:13:26;7.03;;;3.15;;
18796;SDS011;9526;52.612;13.300;2023-07-31T04:15:53;6.78;;;3.00;;
18796;SDS011;9526;52.612;13.300;2023-07-31T04:18:17;3.88;;;2.80;;
18796;SDS011;9526;52.612;13.300;2023-07-31T04:20:40;5.85;;;3.20;;
18796;SDS011;9526;52.612;13.300;2023-07-31T04:23:04;4.65;;;2.85;;
18796;SDS011;9526;52.612;13.300;2023-07-31T04:25:28;5.40;;;2.95;;
18796;SDS011;9526;52.612;13.300;2023-07-31T04:27:51;7.75;;;3.20;;
18796;SDS011;9526;52.612;13.300;2023-07-31T04:30:15;4.35;;;3.22;;
18796;SDS011;9526;52.612;13.300;2023-07-31T04:32:40;4.03;;;3.35;;
18796;SDS011;9526;52.612;13.300;2023-07-31T04:35:04;5.35;;;3.28;;
18796;SDS011;9526;52.612;13.300;2023-07-31T04:37:29;6.65;;;3.45;;
18796;SDS011;9526;52.612;13.300;2023-07-31T04:39:52;6.60;;;3.90;;
18796;SDS011;9526;52.612;13.300;2023-07-31T04:42:16;6.00;;;3.17;;
18796;SDS011;9526;52.612;13.300;2023-07-31T04:44:40;6.22;;;3.30;;
18796;SDS011;9526;52.612;13.300;2023-07-31T04:47:04;5.97;;;3.25;;
18796;SDS011;9526;52.612;13.300;2023-07-31T04:49:29;4.82;;;3.47;;
18796;SDS011;9526;52.612;13.300;2023-07-31T04:51:54;6.30;;;3.60;;
18796;SDS011;9526;52.612;13.300;2023-07-31T04:54:18;4.70;;;3.22;;
18796;SDS011;9526;52.612;13.300;2023-07-31T04:56:41;7.13;;;3.60;;
18796;SDS011;9526;52.612;13.300;2023-07-31T04:59:05;8.65;;;3.63;;
18796;SDS011;9526;52.612;13.300;2023-07-31T05:01:29;4.63;;;3.22;;
18796;SDS011;9526;52.612;13.300;2023-07-31T05:03:52;5.40;;;3.20;;
18796;SDS011;9526;52.612;13.300;2023-07-31T05:06:17;5.57;;;3.25;;
18796;SDS011;9526;52.612;13.300;2023-07-31T05:08:42;7.63;;;3.28;;
18796;SDS011;9526;52.612;13.300;2023-07-31T05:11:05;6.20;;;3.15;;
18796;SDS011;9526;52.612;13.300;2023-07-31T05:13:29;5.00;;;3.55;;
18796;SDS011;9526;52.612;13.300;2023-07-31T05:15:52;6.78;;;3.50;;
18796;SDS011;9526;52.612;13.300;2023-07-31T05:18:15;5.30;;;3.30;;
18796;SDS011;9526;52.612;13.300;2023-07-31T05:20:39;6.95;;;3.40;;
18796;SDS011;9526;52.612;13.300;2023-07-31T05:23:04;4.57;;;3.08;;
18796;SDS011;9526;52.612;13.300;2023-07-31T05:25:28;5.32;;;3.22;;
18796;SDS011;9526;52.612;13.300;2023-07-31T05:27:52;5.70;;;3.50;;
18796;SDS011;9526;52.612;13.300;2023-07-31T05:30:15;6.25;;;3.35;;
18796;SDS011;9526;52.612;13.300;2023-07-31T05:32:39;4.60;;;3.53;;
18796;SDS011;9526;52.612;13.300;2023-07-31T05:35:03;5.07;;;3.35;;
18796;SDS011;9526;52.612;13.300;2023-07-31T05:37:28;6.93;;;3.47;;
18796;SDS011;9526;52.612;13.300;2023-07-31T05:39:53;6.68;;;3.35;;
18796;SDS011;9526;52.612;13.300;2023-07-31T05:42:17;5.85;;;3.20;;
18796;SDS011;9526;52.612;13.300;2023-07-31T05:44:40;5.05;;;2.88;;
18796;SDS011;9526;52.612;13.300;2023-07-31T05:47:05;7.38;;;3.35;;
18796;SDS011;9526;52.612;13.300;2023-07-31T05:49:28;6.15;;;3.15;;
18796;SDS011;9526;52.612;13.300;2023-07-31T05:51:52;8.07;;;3.22;;
18796;SDS011;9526;52.612;13.300;2023-07-31T05:54:16;5.30;;;3.13;;
18796;SDS011;9526;52.612;13.300;2023-07-31T05:56:41;6.45;;;3.80;;
18796;SDS011;9526;52.612;13.300;2023-07-31T05:59:04;6.38;;;2.67;;
18796;SDS011;9526;52.612;13.300;2023-07-31T06:01:28;5.63;;;3.15;;
18796;SDS011;9526;52.612;13.300;2023-07-31T06:03:52;5.30;;;3.40;;
18796;SDS011;9526;52.612;13.300;2023-07-31T06:06:16;4.43;;;2.78;;
18796;SDS011;9526;52.612;13.300;2023-07-31T06:08:39;3.45;;;3.00;;
18796;SDS011;9526;52.612;13.300;2023-07-31T06:11:03;4.63;;;2.85;;
18796;SDS011;9526;52.612;13.300;2023-07-31T06:13:28;6.15;;;2.72;;
18796;SDS011;9526;52.612;13.300;2023-07-31T06:15:52;5.97;;;3.13;;
18796;SDS011;9526;52.612;13.300;2023-07-31T06:18:15;5.05;;;2.90;;
18796;SDS011;9526;52.612;13.300;2023-07-31T06:20:39;6.00;;;2.80;;
18796;SDS011;9526;52.612;13.300;2023-07-31T06:23:03;5.22;;;3.00;;
18796;SDS011;9526;52.612;13.300;2023-07-31T06:25:27;5.53;;;2.90;;
18796;SDS011;9526;52.612;13.300;2023-07-31T06:27:51;6.25;;;2.60;;
18796;SDS011;9526;52.612;13.300;2023-07-31T06:30:16;3.92;;;2.55;;
18796;SDS011;9526;52.612;13.300;2023-07-31T06:32:40;3.65;;;2.70;;
18796;SDS011;9526;52.612;13.300;2023-07-31T06:35:04;4.78;;;2.53;;
18796;SDS011;9526;52.612;13.300;2023-07-31T06:37:29;5.28;;;2.75;;
18796;SDS011;9526;52.612;13.300;2023-07-31T06:39:53;7.32;;;3.10;;
18796;SDS011;9526;52.612;13.300;2023-07-31T06:42:16;5.32;;;2.65;;
18796;SDS011;9526;52.612;13.300;2023-07-31T06:44:40;5.72;;;2.50;;
18796;SDS011;9526;52.612;13.300;2023-07-31T06:47:05;3.22;;;2.60;;
18796;SDS011;9526;52.612;13.300;2023-07-31T06:49:30;4.00;;;2.58;;
18796;SDS011;9526;52.612;13.300;2023-07-31T06:51:54;4.78;;;2.47;;
18796;SDS011;9526;52.612;13.300;2023-07-31T06:54:18;3.60;;;2.42;;
18796;SDS011;9526;52.612;13.300;2023-07-31T06:56:41;4.20;;;2.38;;
18796;SDS011;9526;52.612;13.300;2023-07-31T06:59:05;4.40;;;2.53;;
18796;SDS011;9526;52.612;13.300;2023-07-31T07:01:29;5.30;;;2.25;;
18796;SDS011;9526;52.612;13.300;2023-07-31T07:03:54;2.58;;;2.10;;
18796;SDS011;9526;52.612;13.300;2023-07-31T07:06:18;3.65;;;2.00;;
18796;SDS011;9526;52.612;13.300;2023-07-31T07:08:42;2.10;;;1.90;;
18796;SDS011;9526;52.612;13.300;2023-07-31T07:11:05;5.85;;;2.25;;
18796;SDS011;9526;52.612;13.300;2023-07-31T07:13:30;5.85;;;2.30;;
18796;SDS011;9526;52.612;13.300;2023-07-31T07:15:53;2.80;;;1.90;;
18796;SDS011;9526;52.612;13.300;2023-07-31T07:18:17;3.17;;;1.77;;
18796;SDS011;9526;52.612;13.300;2023-07-31T07:20:49;3.80;;;2.30;;
18796;SDS011;9526;52.612;13.300;2023-07-31T07:23:14;4.97;;;2.00;;
18796;SDS011;9526;52.612;13.300;2023-07-31T07:25:38;4.22;;;2.20;;
18796;SDS011;9526;52.612;13.300;2023-07-31T07:28:01;2.78;;;1.90;;
18796;SDS011;9526;52.612;13.300;2023-07-31T07:30:25;5.20;;;2.03;;
18796;SDS011;9526;52.612;13.300;2023-07-31T07:32:49;3.83;;;1.90;;
18796;SDS011;9526;52.612;13.300;2023-07-31T07:35:13;3.25;;;1.80;;
18796;SDS011;9526;52.612;13.300;2023-07-31T07:37:38;6.05;;;2.67;;
18796;SDS011;9526;52.612;13.300;2023-07-31T07:40:02;3.35;;;1.95;;
18796;SDS011;9526;52.612;13.300;2023-07-31T07:42:27;4.28;;;2.10;;
18796;SDS011;9526;52.612;13.300;2023-07-31T07:44:50;4.82;;;2.13;;
18796;SDS011;9526;52.612;13.300;2023-07-31T07:47:14;3.80;;;1.80;;
18796;SDS011;9526;52.612;13.300;2023-07-31T07:49:38;3.22;;;1.83;;
18796;SDS011;9526;52.612;13.300;2023-07-31T07:52:01;2.30;;;1.67;;
18796;SDS011;9526;52.612;13.300;2023-07-31T07:54:29;4.55;;;2.10;;
18796;SDS011;9526;52.612;13.300;2023-07-31T07:56:53;2.45;;;1.52;;
18796;SDS011;9526;52.612;13.300;2023-07-31T07:59:17;3.95;;;1.80;;
18796;SDS011;9526;52.612;13.300;2023-07-31T08:01:41;3.30;;;1.88;;
18796;SDS011;9526;52.612;13.300;2023-07-31T08:04:04;3.15;;;1.90;;
18796;SDS011;9526;52.612;13.300;2023-07-31T08:06:28;3.80;;;2.15;;
18796;SDS011;9526;52.612;13.300;2023-07-31T08:08:52;4.25;;;1.95;;
18796;SDS011;9526;52.612;13.300;2023-07-31T08:11:17;3.05;;;1.85;;
18796;SDS011;9526;52.612;13.300;2023-07-31T08:13:40;2.88;;;1.95;;
18796;SDS011;9526;52.612;13.300;2023-07-31T08:16:04;2.53;;;1.58;;
18796;SDS011;9526;52.612;13.300;2023-07-31T08:18:28;4.65;;;1.90;;
18796;SDS011;9526;52.612;13.300;2023-07-31T08:20:51;3.10;;;1.75;;
18796;SDS011;9526;52.612;13.300;2023-07-31T08:23:15;2.83;;;1.63;;
18796;SDS011;9526;52.612;13.300;2023-07-31T08:25:39;3.20;;;1.52;;
18796;SDS011;9526;52.612;13.300;2023-07-31T08:28:04;5.15;;;1.75;;
18796;SDS011;9526;52.612;13.300;2023-07-31T08:30:29;3.25;;;1.67;;
18796;SDS011;9526;52.612;13.300;2023-07-31T08:32:52;3.03;;;1.70;;
18796;SDS011;9526;52.612;13.300;2023-07-31T08:35:16;3.28;;;1.70;;
18796;SDS011;9526;52.612;13.300;2023-07-31T08:37:40;5.28;;;1.73;;
18796;SDS011;9526;52.612;13.300;2023-07-31T08:40:04;2.92;;;1.77;;
18796;SDS011;9526;52.612;13.300;2023-07-31T08:42:29;3.25;;;2.03;;
18796;SDS011;9526;52.612;13.300;2023-07-31T08:44:54;2.50;;;1.55;;
18796;SDS011;9526;52.612;13.300;2023-07-31T08:47:19;2.35;;;1.50;;
18796;SDS011;9526;52.612;13.300;2023-07-31T08:49:45;4.47;;;1.85;;
18796;SDS011;9526;52.612;13.300;2023-07-31T08:52:10;1.77;;;1.50;;
18796;SDS011;9526;52.612;13.300;2023-07-31T08:54:33;2.65;;;1.60;;
18796;SDS011;9526;52.612;13.300;2023-07-31T08:56:57;1.85;;;1.55;;
18796;SDS011;9526;52.612;13.300;2023-07-31T08:59:22;3.97;;;1.83;;
18796;SDS011;9526;52.612;13.300;2023-07-31T09:01:48;2.15;;;1.33;;
18796;SDS011;9526;52.612;13.300;2023-07-31T09:04:16;3.40;;;1.60;;
18796;SDS011;9526;52.612;13.300;2023-07-31T09:06:42;2.58;;;1.42;;
18796;SDS011;9526;52.612;13.300;2023-07-31T09:09:07;2.85;;;1.50;;
18796;SDS011;9526;52.612;13.300;2023-07-31T09:11:31;3.90;;;1.48;;
18796;SDS011;9526;52.612;13.300;2023-07-31T09:13:56;1.55;;;1.45;;
18796;SDS011;9526;52.612;13.300;2023-07-31T09:16:27;1.95;;;1.60;;
18796;SDS011;9526;52.612;13.300;2023-07-31T09:18:55;2.08;;;1.40;;
18796;SDS011;9526;52.612;13.300;2023-07-31T09:21:20;3.45;;;1.50;;
18796;SDS011;9526;52.612;13.300;2023-07-31T09:23:45;1.55;;;1.30;;
18796;SDS011;9526;52.612;13.300;2023-07-31T09:26:09;1.70;;;1.30;;
18796;SDS011;9526;52.612;13.300;2023-07-31T09:28:34;1.45;;;1.35;;
18796;SDS011;9526;52.612;13.300;2023-07-31T09:30:57;1.40;;;1.30;;
18796;SDS011;9526;52.612;13.300;2023-07-31T09:33:21;1.67;;;1.20;;
18796;SDS011;9526;52.612;13.300;2023-07-31T09:35:46;3.75;;;1.30;;
18796;SDS011;9526;52.612;13.300;2023-07-31T09:38:11;1.50;;;1.23;;
18796;SDS011;9526;52.612;13.300;2023-07-31T09:40:37;2.25;;;0.88;;
18796;SDS011;9526;52.612;13.300;2023-07-31T09:43:03;1.92;;;1.10;;
18796;SDS011;9526;52.612;13.300;2023-07-31T09:45:28;1.75;;;1.00;;
18796;SDS011;9526;52.612;13.300;2023-07-31T09:48:02;1.10;;;0.88;;
18796;SDS011;9526;52.612;13.300;2023-07-31T09:50:26;2.13;;;1.00;;
18796;SDS011;9526;52.612;13.300;2023-07-31T09:52:51;1.33;;;0.90;;
18796;SDS011;9526;52.612;13.300;2023-07-31T09:55:15;2.00;;;1.05;;
18796;SDS011;9526;52.612;13.300;2023-07-31T09:57:40;0.95;;;0.85;;
18796;SDS011;9526;52.612;13.300;2023-07-31T10:00:08;4.47;;;1.00;;
18796;SDS011;9526;52.612;13.300;2023-07-31T10:02:32;1.50;;;1.17;;
18796;SDS011;9526;52.612;13.300;2023-07-31T10:04:56;1.67;;;1.38;;
18796;SDS011;9526;52.612;13.300;2023-07-31T10:07:25;2.05;;;1.10;;
18796;SDS011;9526;52.612;13.300;2023-07-31T10:09:51;1.98;;;1.10;;
18796;SDS011;9526;52.612;13.300;2023-07-31T10:12:16;2.75;;;1.20;;
18796;SDS011;9526;52.612;13.300;2023-07-31T10:14:43;2.55;;;1.23;;
18796;SDS011;9526;52.612;13.300;2023-07-31T10:17:07;1.65;;;1.27;;
18796;SDS011;9526;52.612;13.300;2023-07-31T10:19:31;1.58;;;1.17;;
18796;SDS011;9526;52.612;13.300;2023-07-31T10:21:56;4.60;;;1.33;;
18796;SDS011;9526;52.612;13.300;2023-07-31T10:24:22;2.25;;;1.50;;
18796;SDS011;9526;52.612;13.300;2023-07-31T10:26:49;3.05;;;1.40;;
18796;SDS011;9526;52.612;13.300;2023-07-31T10:29:16;1.63;;;1.40;;
18796;SDS011;9526;52.612;13.300;2023-07-31T10:31:42;1.77;;;1.52;;
18796;SDS011;9526;52.612;13.300;2023-07-31T10:34:06;2.83;;;1.48;;
18796;SDS011;9526;52.612;13.300;2023-07-31T10:36:30;3.90;;;1.77;;
18796;SDS011;9526;52.612;13.300;2023-07-31T10:38:55;2.78;;;2.20;;
18796;SDS011;9526;52.612;13.300;2023-07-31T10:41:19;4.65;;;2.05;;
18796;SDS011;9526;52.612;13.300;2023-07-31T10:43:55;2.92;;;1.90;;
18796;SDS011;9526;52.612;13.300;2023-07-31T10:46:21;3.63;;;2.50;;
18796;SDS011;9526;52.612;13.300;2023-07-31T10:48:46;6.13;;;2.60;;
18796;SDS011;9526;52.612;13.300;2023-07-31T10:51:21;6.03;;;2.85;;
18796;SDS011;9526;52.612;13.300;2023-07-31T10:53:45;4.07;;;2.55;;
18796;SDS011;9526;52.612;13.300;2023-07-31T10:56:09;3.90;;;2.63;;
18796;SDS011;9526;52.612;13.300;2023-07-31T10:58:37;6.65;;;3.15;;
18796;SDS011;9526;52.612;13.300;2023-07-31T11:01:03;5.20;;;2.70;;
18796;SDS011;9526;52.612;13.300;2023-07-31T11:03:40;4.40;;;2.67;;
18796;SDS011;9526;52.612;13.300;2023-07-31T11:06:05;3.75;;;2.60;;
18796;SDS011;9526;52.612;13.300;2023-07-31T11:08:29;6.18;;;2.70;;
18796;SDS011;9526;52.612;13.300;2023-07-31T11:11:04;2.83;;;2.30;;
18796;SDS011;9526;52.612;13.300;2023-07-31T11:13:29;5.22;;;2.75;;
18796;SDS011;9526;52.612;13.300;2023-07-31T11:15:55;4.85;;;2.63;;
18796;SDS011;9526;52.612;13.300;2023-07-31T11:18:20;4.43;;;2.42;;
18796;SDS011;9526;52.612;13.300;2023-07-31T11:20:44;3.45;;;2.60;;
18796;SDS011;9526;52.612;13.300;2023-07-31T11:23:08;4.47;;;2.67;;
18796;SDS011;9526;52.612;13.300;2023-07-31T11:25:33;4.13;;;2.17;;
18796;SDS011;9526;52.612;13.300;2023-07-31T11:27:55;5.63;;;2.83;;
18796;SDS011;9526;52.612;13.300;2023-07-31T11:30:19;4.22;;;2.28;;
18796;SDS011;9526;52.612;13.300;2023-07-31T11:32:43;3.83;;;2.40;;
18796;SDS011;9526;52.612;13.300;2023-07-31T11:35:11;3.95;;;2.67;;
18796;SDS011;9526;52.612;13.300;2023-07-31T11:37:39;5.72;;;2.63;;
18796;SDS011;9526;52.612;13.300;2023-07-31T11:40:03;4.13;;;2.60;;
18796;SDS011;9526;52.612;13.300;2023-07-31T11:42:28;4.88;;;2.75;;
18796;SDS011;9526;52.612;13.300;2023-07-31T11:44:51;3.72;;;2.38;;
18796;SDS011;9526;52.612;13.300;2023-07-31T11:47:16;3.72;;;2.28;;
18796;SDS011;9526;52.612;13.300;2023-07-31T11:49:39;4.68;;;2.85;;
18796;SDS011;9526;52.612;13.300;2023-07-31T11:52:05;7.35;;;2.85;;
18796;SDS011;9526;52.612;13.300;2023-07-31T11:54:29;3.30;;;2.30;;
18796;SDS011;9526;52.612;13.300;2023-07-31T11:56:53;4.18;;;2.65;;
18796;SDS011;9526;52.612;13.300;2023-07-31T11:59:19;5.38;;;2.45;;
18796;SDS011;9526;52.612;13.300;2023-07-31T12:01:43;7.38;;;2.55;;
18796;SDS011;9526;52.612;13.300;2023-07-31T12:04:06;6.43;;;2.58;;
18796;SDS011;9526;52.612;13.300;2023-07-31T12:06:34;4.32;;;2.50;;
18796;SDS011;9526;52.612;13.300;2023-07-31T12:09:01;6.57;;;2.42;;
18796;SDS011;9526;52.612;13.300;2023-07-31T12:11:27;3.95;;;2.53;;
18796;SDS011;9526;52.612;13.300;2023-07-31T12:13:50;3.35;;;2.33;;
18796;SDS011;9526;52.612;13.300;2023-07-31T12:16:14;3.80;;;2.35;;
18796;SDS011;9526;52.612;13.300;2023-07-31T12:18:38;6.47;;;2.60;;
18796;SDS011;9526;52.612;13.300;2023-07-31T12:21:03;2.85;;;2.38;;
18796;SDS011;9526;52.612;13.300;2023-07-31T12:23:30;6.60;;;2.65;;
18796;SDS011;9526;52.612;13.300;2023-07-31T12:26:02;5.03;;;2.67;;
18796;SDS011;9526;52.612;13.300;2023-07-31T12:28:28;3.60;;;2.30;;
18796;SDS011;9526;52.612;13.300;2023-07-31T12:30:52;4.55;;;2.55;;
18796;SDS011;9526;52.612;13.300;2023-07-31T12:33:21;5.10;;;2.60;;
18796;SDS011;9526;52.612;13.300;2023-07-31T12:35:45;5.57;;;2.50;;
18796;SDS011;9526;52.612;13.300;2023-07-31T12:38:10;3.80;;;1.92;;
18796;SDS011;9526;52.612;13.300;2023-07-31T12:40:36;4.75;;;2.58;;
18796;SDS011;9526;52.612;13.300;2023-07-31T12:43:02;4.20;;;2.58;;
18796;SDS011;9526;52.612;13.300;2023-07-31T12:45:26;4.00;;;2.58;;
18796;SDS011;9526;52.612;13.300;2023-07-31T12:47:50;3.63;;;2.45;;
18796;SDS011;9526;52.612;13.300;2023-07-31T12:50:13;4.28;;;2.78;;
18796;SDS011;9526;52.612;13.300;2023-07-31T12:52:37;5.03;;;2.83;;
18796;SDS011;9526;52.612;13.300;2023-07-31T12:55:01;4.82;;;2.83;;
18796;SDS011;9526;52.612;13.300;2023-07-31T12:57:26;5.10;;;2.80;;
18796;SDS011;9526;52.612;13.300;2023-07-31T12:59:51;4.18;;;2.70;;
18796;SDS011;9526;52.612;13.300;2023-07-31T13:02:15;5.20;;;2.47;;
18796;SDS011;9526;52.612;13.300;2023-07-31T13:04:41;3.63;;;2.30;;
18796;SDS011;9526;52.612;13.300;2023-07-31T13:07:05;5.95;;;2.88;;
18796;SDS011;9526;52.612;13.300;2023-07-31T13:09:29;4.75;;;2.47;;
18796;SDS011;9526;52.612;13.300;2023-07-31T13:11:53;5.07;;;2.75;;
18796;SDS011;9526;52.612;13.300;2023-07-31T13:14:16;4.93;;;2.83;;
18796;SDS011;9526;52.612;13.300;2023-07-31T13:16:41;4.93;;;2.65;;
18796;SDS011;9526;52.612;13.300;2023-07-31T13:19:05;3.85;;;2.47;;
18796;SDS011;9526;52.612;13.300;2023-07-31T13:21:28;4.53;;;3.05;;
18796;SDS011;9526;52.612;13.300;2023-07-31T13:23:52;5.57;;;2.85;;
18796;SDS011;9526;52.612;13.300;2023-07-31T13:26:16;2.85;;;2.35;;
18796;SDS011;9526;52.612;13.300;2023-07-31T13:28:39;5.68;;;2.20;;
18796;SDS011;9526;52.612;13.300;2023-07-31T13:31:03;5.88;;;2.25;;
18796;SDS011;9526;52.612;13.300;2023-07-31T13:33:28;3.03;;;2.15;;
18796;SDS011;9526;52.612;13.300;2023-07-31T13:35:59;4.65;;;2.30;;
18796;SDS011;9526;52.612;13.300;2023-07-31T13:38:23;5.05;;;2.22;;
18796;SDS011;9526;52.612;13.300;2023-07-31T13:40:47;4.65;;;2.35;;
18796;SDS011;9526;52.612;13.300;2023-07-31T13:43:10;3.25;;;2.17;;
18796;SDS011;9526;52.612;13.300;2023-07-31T13:45:34;4.55;;;2.08;;
18796;SDS011;9526;52.612;13.300;2023-07-31T13:47:58;4.82;;;2.28;;
18796;SDS011;9526;52.612;13.300;2023-07-31T13:50:23;4.43;;;2.40;;
18796;SDS011;9526;52.612;13.300;2023-07-31T13:52:47;2.70;;;2.08;;
18796;SDS011;9526;52.612;13.300;2023-07-31T13:55:10;3.75;;;2.08;;
18796;SDS011;9526;52.612;13.300;2023-07-31T13:57:34;4.50;;;1.92;;
18796;SDS011;9526;52.612;13.300;2023-07-31T13:59:57;3.15;;;2.17;;
18796;SDS011;9526;52.612;13.300;2023-07-31T14:02:21;4.78;;;2.15;;
18796;SDS011;9526;52.612;13.300;2023-07-31T14:04:45;4.07;;;2.20;;
18796;SDS011;9526;52.612;13.300;2023-07-31T14:07:10;3.55;;;2.40;;
18796;SDS011;9526;52.612;13.300;2023-07-31T14:09:34;3.38;;;2.17;;
18796;SDS011;9526;52.612;13.300;2023-07-31T14:11:58;3.30;;;2.38;;
18796;SDS011;9526;52.612;13.300;2023-07-31T14:14:21;3.15;;;1.80;;
18796;SDS011;9526;52.612;13.300;2023-07-31T14:16:45;4.53;;;2.70;;
18796;SDS011;9526;52.612;13.300;2023-07-31T14:19:09;3.47;;;2.45;;
18796;SDS011;9526;52.612;13.300;2023-07-31T14:21:33;4.55;;;2.10;;
18796;SDS011;9526;52.612;13.300;2023-07-31T14:23:58;4.05;;;2.30;;
18796;SDS011;9526;52.612;13.300;2023-07-31T14:26:22;3.22;;;2.28;;
18796;SDS011;9526;52.612;13.300;2023-07-31T14:28:45;3.55;;;2.15;;
18796;SDS011;9526;52.612;13.300;2023-07-31T14:31:09;5.85;;;2.33;;
18796;SDS011;9526;52.612;13.300;2023-07-31T14:33:33;4.78;;;2.28;;
18796;SDS011;9526;52.612;13.300;2023-07-31T14:35:57;3.53;;;2.40;;